Ithaca, NY (14850)

10:35 AM EDT on August 20, 2017 (GMT -0400)
Fall Creek Elementary School | | Change Station

Elev 396 ft 42.45 °N, 76.50 °W | Updated 32 seconds ago

Clear
Clear
72.7 °F
Feels Like 73 °F
N
0.0
Wind Variable Wind from NNW
Gusts 0.0 mph

Today
High -- | Low -- °F
--% Chance of Precip.
Yesterday
High -- | Low -- °F
Precip. -- in
Pressure 30.10 in
Visibility 10.0 miles
Clouds Few 1700 ft
Heat Index 73 °F
Dew Point 66 °F
Humidity 78%
Rainfall 0.00 in
Snow Depth Not available.
6:18 AM 7:59 PM
Waning Crescent, 2% visible
METAR KITH 201356Z 29006KT 10SM R32/3500VP6000FT FEW017 19/15 A3011 RMK AO2 SLP192 T01890150
Pressure 30.10 in
Visibility 10.0 miles
Clouds Few 1700 ft
Heat Index 73 °F
Dew Point 66 °F
Humidity 78%
Rainfall 0.00 in
Snow Depth Not available.
6:18 AM 7:59 PM
Waning Crescent, 2% visible
METAR KITH 201356Z 29006KT 10SM R32/3500VP6000FT FEW017 19/15 A3011 RMK AO2 SLP192 T01890150

Get Severe Weather Alerts

Thanks for signing up!

Be on the lookout for a verification email in your inbox.

You'll start receiving the daily forecast at 6 AM.

×

10-Day Weather Forecast

Almanac

Astronomy

Aug. 20, 2017 Rise Set
Actual Time
Civil Twilight
Nautical Twilight
Astronomical Twilight
Moon
Length of Visible Light
Length of Day
Tomorrow will be .
, % of the Moon is Illuminated

Today's Extremes

State Highs State Lows

Community

WunderPhotos

Category 6

Welcome to Category 6. This is the collective home for Weather Underground's featured writeups by Dr. Jeff Masters (right), Bob Henson (left), Chris Burt, and other regular contributors.

Nearby

Air Quality

  Air Quality AQ Index Pollutant
Not available.

Snow Depth

Station Depth Elevation

Earthquake Activity

City Distance Mag. Time & Date
Minimum magnitude displayed is 2.5.

Coastal Water Temperatures

Place Temperature

Stations

Nearby Weather Stations

Station Location Temp. Windchill Dew Point Humidity Wind Precip. Elev Updated Type
                   

Watches & Warnings

There are currently no watches in effect.